createdAt,value
2022-10-16T07:11:07.071Z,64.338997
2022-10-16T07:12:16.782Z,64.413002
2022-10-16T07:13:23.419Z,64.464996
2022-10-16T07:14:31.067Z,64.644997
2022-10-16T07:15:40.749Z,64.815002
2022-10-16T07:16:50.449Z,64.802002
2022-10-16T07:17:59.101Z,64.866997
2022-10-16T07:19:08.730Z,64.878998
2022-10-16T07:20:17.375Z,64.775002
2022-10-16T07:21:27.023Z,64.732002
2022-10-16T07:22:34.873Z,64.778
2022-10-16T07:23:43.530Z,64.758003
2022-10-16T07:24:53.190Z,64.718002
2022-10-16T07:26:02.783Z,64.630997
2022-10-16T07:27:12.485Z,64.477997
2022-10-16T07:28:22.139Z,64.467003
2022-10-16T07:29:30.895Z,64.586998
2022-10-16T07:30:40.498Z,64.360001
2022-10-16T07:31:49.145Z,64.364998
2022-10-16T07:32:57.807Z,64.569
2022-10-16T07:34:07.449Z,64.315002
2022-10-16T07:35:16.124Z,64.394997
2022-10-16T07:36:25.890Z,64.432999
2022-10-16T07:37:34.501Z,64.324997
2022-10-16T07:38:43.241Z,64.454002
2022-10-16T07:39:52.968Z,64.459
2022-10-16T07:41:00.773Z,64.510002
2022-10-16T07:42:08.387Z,64.424004
2022-10-16T07:43:18.069Z,64.212997
2022-10-16T07:44:27.645Z,64.383003
2022-10-16T07:45:36.220Z,64.288002
2022-10-16T07:46:44.858Z,64.278
2022-10-16T07:47:53.473Z,64.264
2022-10-16T07:49:03.119Z,64.403
2022-10-16T07:50:12.731Z,64.402
2022-10-16T07:51:22.339Z,64.334
2022-10-16T07:52:32.068Z,64.358002
2022-10-16T07:53:41.868Z,64.276001
2022-10-16T07:54:50.690Z,64.195999
2022-10-16T07:56:01.310Z,64.017998
2022-10-16T07:57:09.919Z,64.017998
2022-10-16T07:58:19.541Z,64.016998
2022-10-16T07:59:28.168Z,64.138
2022-10-16T08:00:35.760Z,64.005997
2022-10-16T08:01:45.498Z,63.904999
2022-10-16T08:02:54.052Z,64.149002
2022-10-16T08:04:02.824Z,64.112999
2022-10-16T08:05:10.315Z,64.094002
2022-10-16T08:06:20.644Z,63.917999
2022-10-16T08:07:29.519Z,63.963001
2022-10-16T08:08:38.189Z,64.037003
2022-10-16T08:09:45.881Z,64.029999
2022-10-16T08:10:55.513Z,63.949001
2022-10-16T08:12:04.198Z,63.943001
2022-10-16T08:13:12.879Z,64.107002
2022-10-16T08:14:22.549Z,64.027
2022-10-16T08:15:32.135Z,63.967999
2022-10-16T08:16:41.743Z,63.912998
2022-10-16T08:17:50.414Z,63.848
2022-10-16T08:19:00.175Z,63.778999
2022-10-16T08:20:09.904Z,63.758999
2022-10-16T08:21:21.462Z,63.730999
2022-10-16T08:22:29.326Z,63.710999
2022-10-16T08:23:38.090Z,63.639999
2022-10-16T08:24:46.717Z,63.624001
2022-10-16T08:25:56.331Z,63.598
2022-10-16T08:27:06.091Z,63.571999
2022-10-16T08:28:13.705Z,63.544998
2022-10-16T08:29:23.410Z,63.502998
2022-10-16T08:30:32.016Z,63.470001
2022-10-16T08:31:41.652Z,63.437
2022-10-16T08:32:50.304Z,63.401001
2022-10-16T08:33:57.919Z,63.375
2022-10-16T08:35:05.589Z,63.349998
2022-10-16T08:36:15.343Z,63.34
2022-10-16T08:37:23.945Z,63.313999
2022-10-16T08:38:33.732Z,63.293999
2022-10-16T08:39:42.391Z,63.256001
2022-10-16T08:40:52.949Z,63.238998
2022-10-16T08:42:00.237Z,63.202
2022-10-16T08:43:07.940Z,63.155998
2022-10-16T08:44:17.730Z,63.155998
2022-10-16T08:45:27.376Z,63.154999
2022-10-16T08:46:36.066Z,63.119999
2022-10-16T08:47:45.733Z,63.095001
2022-10-16T08:48:54.451Z,63.062
2022-10-16T08:50:04.201Z,63.055
2022-10-16T08:51:13.839Z,63.026001
2022-10-16T08:52:23.773Z,63
2022-10-16T08:53:31.253Z,62.986
2022-10-16T08:54:40.939Z,62.966999
2022-10-16T08:55:49.720Z,62.945
2022-10-16T08:57:00.425Z,62.881001
2022-10-16T08:58:08.226Z,62.854
2022-10-16T08:59:17.015Z,62.811001
2022-10-16T09:00:26.731Z,62.737999
2022-10-16T09:01:35.522Z,62.68
2022-10-16T09:02:44.204Z,62.618
2022-10-16T09:03:53.998Z,62.547001
2022-10-16T09:05:04.868Z,62.499001
2022-10-16T09:06:13.737Z,62.453999
2022-10-16T09:07:22.579Z,62.374001
2022-10-16T09:08:32.370Z,62.314999
2022-10-16T09:09:41.981Z,62.286999
2022-10-16T09:10:49.744Z,62.243
2022-10-16T09:11:59.450Z,62.219002
2022-10-16T09:13:08.145Z,62.187
2022-10-16T09:14:17.068Z,62.154999
2022-10-16T09:15:25.939Z,62.138
2022-10-16T09:16:34.741Z,62.099998
2022-10-16T09:17:44.560Z,62.112999
2022-10-16T09:18:53.237Z,62.087002
2022-10-16T09:20:02.970Z,62.053001
2022-10-16T09:21:10.729Z,62.025002
2022-10-16T09:22:19.381Z,62.013
2022-10-16T09:23:28.380Z,61.987999
2022-10-16T09:24:37.161Z,61.969002
2022-10-16T09:25:47.062Z,61.950001
2022-10-16T09:26:56.753Z,61.924
2022-10-16T09:28:06.433Z,61.948002
2022-10-16T09:29:14.147Z,61.916
2022-10-16T09:30:21.764Z,61.916
2022-10-16T09:31:31.663Z,61.91
2022-10-16T09:32:40.260Z,61.855999
2022-10-16T09:33:49.995Z,61.835999
2022-10-16T09:34:58.665Z,61.800999
2022-10-16T09:36:08.383Z,61.782001
2022-10-16T09:37:18.476Z,61.800999
2022-10-16T09:38:29.250Z,61.787998
2022-10-16T09:39:38.297Z,61.787998
2022-10-16T09:40:52.089Z,61.763
2022-10-16T09:42:02.814Z,61.778999
2022-10-16T09:43:13.080Z,61.778999
2022-10-16T09:44:23.519Z,61.778999
2022-10-16T09:45:36.635Z,61.775002
2022-10-16T09:46:46.611Z,61.728001
2022-10-16T09:47:57.786Z,61.688
2022-10-16T09:49:06.508Z,61.627998
2022-10-16T09:50:18.764Z,61.633999
2022-10-16T09:51:29.475Z,61.668999
2022-10-16T09:52:45.765Z,61.688
2022-10-16T09:53:55.545Z,61.730999
2022-10-16T09:55:07.128Z,61.737999
2022-10-16T09:56:17.425Z,61.693001
2022-10-16T09:57:27.409Z,61.664001
2022-10-16T09:58:36.864Z,61.721001
2022-10-16T09:59:49.594Z,61.728001
2022-10-16T10:00:59.003Z,61.644001
2022-10-16T10:02:10.129Z,61.632
2022-10-16T10:03:19.743Z,61.582001
2022-10-16T10:04:30.438Z,61.659
2022-10-16T10:05:40.754Z,61.659
2022-10-16T10:06:51.492Z,61.687
2022-10-16T10:08:00.627Z,61.687
2022-10-16T10:09:11.951Z,61.678001
2022-10-16T10:10:20.171Z,61.577999
2022-10-16T10:11:29.715Z,61.599998
2022-10-16T10:12:40.405Z,61.676998
2022-10-16T10:13:49.894Z,61.584
2022-10-16T10:15:01.933Z,61.540001
2022-10-16T10:16:09.653Z,61.577999
2022-10-16T10:17:20.324Z,61.661999
2022-10-16T10:18:29.964Z,61.615002
2022-10-16T10:19:41.283Z,61.549999
2022-10-16T10:20:51.049Z,61.521999
2022-10-16T10:22:01.209Z,61.52
2022-10-16T10:23:10.629Z,61.481998
2022-10-16T10:24:21.413Z,61.444
2022-10-16T10:25:31.403Z,61.428001
2022-10-16T10:26:44.236Z,61.396
2022-10-16T10:27:52.889Z,61.326
2022-10-16T10:29:05.012Z,61.324001
2022-10-16T10:31:26.264Z,61.216
2022-10-16T10:32:36.773Z,61.148998
2022-10-16T10:33:46.552Z,61.209
2022-10-16T10:34:56.789Z,61.228001
2022-10-16T10:36:05.188Z,61.228001
2022-10-16T10:37:14.869Z,61.251999
2022-10-16T10:38:25.220Z,61.212002
2022-10-16T10:39:34.615Z,61.18
2022-10-16T10:40:44.788Z,61.122002
2022-10-16T10:41:54.682Z,61.103001
2022-10-16T10:43:05.219Z,61.036999
2022-10-16T10:44:16.794Z,60.963001
2022-10-16T10:45:27.766Z,60.950001
2022-10-16T10:46:39.864Z,60.911999
2022-10-16T10:47:49.268Z,61.019001
2022-10-16T10:49:00.504Z,61.143002
2022-10-16T10:50:13.247Z,61.148998
2022-10-16T10:51:28.799Z,61.098
2022-10-16T10:52:46.577Z,60.938999
2022-10-16T10:53:57.510Z,60.868
2022-10-16T10:55:08.242Z,60.855
2022-10-16T10:56:20.755Z,60.881001
2022-10-16T10:57:34.649Z,60.912998
2022-10-16T10:58:46.708Z,60.887001
2022-10-16T10:59:58.730Z,60.912998
2022-10-16T11:01:11.344Z,60.898998
2022-10-16T11:02:19.371Z,60.769001
2022-10-16T11:03:30.914Z,60.813
2022-10-16T11:04:41.687Z,60.813
2022-10-16T11:05:50.542Z,60.826
2022-10-16T11:06:59.349Z,60.775002
2022-10-16T11:08:09.818Z,60.756001
2022-10-16T11:09:20.200Z,60.777
2022-10-16T11:10:28.878Z,60.750999
2022-10-16T11:11:37.512Z,60.719002
2022-10-16T11:12:47.183Z,60.777
2022-10-16T11:13:55.957Z,60.808998
2022-10-16T11:15:04.736Z,60.868
2022-10-16T11:16:15.312Z,60.855
2022-10-16T11:17:23.073Z,60.731998
2022-10-16T11:18:32.732Z,60.694
2022-10-16T11:19:41.396Z,60.724998
2022-10-16T11:20:50.114Z,60.713001
2022-10-16T11:21:59.841Z,60.737999
2022-10-16T11:23:09.502Z,60.706001
2022-10-16T11:24:18.107Z,60.678001
2022-10-16T11:25:26.799Z,60.672001
2022-10-16T11:26:35.440Z,60.678001
2022-10-16T11:27:45.079Z,60.719002
2022-10-16T11:28:53.811Z,60.694
2022-10-16T11:30:03.375Z,60.687
2022-10-16T11:31:14.067Z,60.672001
2022-10-16T11:32:22.787Z,60.645
2022-10-16T11:33:31.451Z,60.632
2022-10-16T11:34:40.144Z,60.639
2022-10-16T11:35:48.784Z,60.645
2022-10-16T11:36:58.401Z,60.541
2022-10-16T11:38:05.079Z,60.490002
2022-10-16T11:39:12.740Z,60.495998
2022-10-16T11:40:22.335Z,60.458
2022-10-16T11:41:32.108Z,60.458
2022-10-16T11:42:40.789Z,60.464001
2022-10-16T11:43:49.685Z,60.470001
2022-10-16T11:44:59.359Z,60.424
2022-10-16T11:46:09.894Z,60.417
2022-10-16T11:47:34.166Z,60.334
2022-10-16T11:48:26.319Z,60.299999
2022-10-16T11:49:36.036Z,60.268002
2022-10-16T11:50:45.754Z,60.212002
2022-10-16T11:51:54.414Z,60.191002
2022-10-16T11:53:03.106Z,60.139999
2022-10-16T11:54:12.877Z,60.076
2022-10-16T11:55:22.600Z,60.004002
2022-10-16T11:56:32.260Z,60.028999
2022-10-16T11:57:39.938Z,60.153
2022-10-16T11:58:49.783Z,60.183998
2022-10-16T11:59:58.404Z,60.230999
2022-10-16T12:01:07.135Z,60.25
2022-10-16T12:02:16.835Z,60.294998
2022-10-16T12:03:25.625Z,60.307999
2022-10-16T12:04:35.302Z,60.313999
2022-10-16T12:05:43.992Z,60.313999
2022-10-16T12:06:52.666Z,60.32
2022-10-16T12:08:02.402Z,60.333
2022-10-16T12:09:11.044Z,60.313999
2022-10-16T12:10:23.645Z,60.327
2022-10-16T12:11:31.393Z,60.339001
2022-10-16T12:12:41.273Z,60.327
2022-10-16T12:13:50.955Z,60.339001
2022-10-16T12:15:15.171Z,60.333
2022-10-16T12:16:09.446Z,60.32
2022-10-16T12:17:19.218Z,60.32
2022-10-16T12:18:27.974Z,60.300999
2022-10-16T12:19:36.620Z,60.289001
2022-10-16T12:20:46.330Z,60.276001
2022-10-16T12:21:54.999Z,60.263
2022-10-16T12:23:04.702Z,60.257
2022-10-16T12:24:12.506Z,60.228001
2022-10-16T12:25:21.239Z,60.228001
2022-10-16T12:26:30.914Z,60.215
2022-10-16T12:27:40.738Z,60.221001
2022-10-16T12:28:49.418Z,60.202
2022-10-16T12:29:57.933Z,60.188999
2022-10-16T12:31:06.615Z,60.182999
2022-10-16T12:32:24.177Z,60.169998
2022-10-16T12:33:27.332Z,60.182999
2022-10-16T12:34:36.969Z,60.145
2022-10-16T12:35:45.701Z,60.138
2022-10-16T12:36:53.582Z,60.125999
2022-10-16T12:38:03.762Z,60.104
2022-10-16T12:39:14.432Z,60.084999
2022-10-16T12:40:22.411Z,60.066002
2022-10-16T12:41:31.979Z,60.053001
2022-10-16T12:42:42.062Z,60.034
2022-10-16T12:43:51.798Z,60.044998
2022-10-16T12:45:00.441Z,60.018002
2022-10-16T12:46:09.084Z,59.992001
2022-10-16T12:48:32.444Z,59.953999
2022-10-16T12:49:38.226Z,59.929001
2022-10-16T12:50:46.892Z,59.91
2022-10-16T12:51:56.594Z,59.900002
2022-10-16T12:53:05.467Z,59.874001
2022-10-16T12:54:14.297Z,59.855
2022-10-16T12:55:22.849Z,59.841999
2022-10-16T12:56:32.649Z,59.881001
2022-10-16T12:57:42.213Z,59.900002
2022-10-16T12:58:50.235Z,59.945999
2022-10-16T12:59:58.824Z,59.874001
2022-10-16T13:01:09.149Z,59.738998
2022-10-16T13:02:18.053Z,59.518002
2022-10-16T13:03:28.818Z,59.66
